Evansville Regional Airport
KEVV : now visible

Airfield :











YOU CAN JOIN US ON...

 
LOGIN :

Register | Disclaimer

   EN    FR    IT 

 









Legend :    VFR   Marginal VFR   IFR   Intensive IFR   Very Intensive IFR
Visi :
Ceiling :
>= 8 km
>= 3000ft
5 to 8 km
1000 to 3000 ft
1500m to 5 km
500 to 1000 ft
800 to 1500m
200 to 500 ft
< 800m
< 200 ft
Symbols :   Thunderstorms  Fog  Heavy snow  Heavy precipitations  Wind > 20 kt






- Airport Elevation : 418 ft
- IATA code : EVV


KEVV - Evansville Regional

CURRENT METAR :
  • 030808Z AUTO 18004KT 5SM RA BR BKN048 BKN060 OVC080 21/18 A2997 RMK AO2 LTG DSNT SW AND W P0006 T02060183 $

EXPIRED METARs :
  • 030801Z AUTO 21003KT 2 1/2SM -RA BR BKN048 BKN060 OVC110 21/18 A2997 RMK AO2 LTG DSNT SW AND W P0005 T02060183 $
  • 030754Z AUTO 00000KT 3SM RA BR BKN046 BKN060 OVC110 21/18 A2998 RMK AO2 LTG DSNT E AND SW AND W RAE09B36 SLP146 P0002 T02060183 $
  • 030717Z AUTO 17006KT 10SM SCT060 BKN080 OVC095 20/18 A2997 RMK AO2 LTG DSNT ALQDS RAE09 P0000 T02000183 $
  • 030702Z AUTO 16003KT 9SM VCTS -RA FEW039 BKN080 OVC090 20/18 A2997 RMK AO2 LTG DSNT E-SW P0000 T02000183 $
  • 030647Z AUTO 22003KT 7SM -RA FEW043 OVC065 20/18 A2998 RMK AO2 WSHFT 0542 LTG DSNT NE AND E AND SW TSE23 P0055 T02000183 $
  • 030634Z AUTO 18005KT 4SM VCTS RA BR FEW044 BKN070 OVC090 20/18 A2997 RMK AO2 WSHFT 0542 LTG DSNT NE AND E AND SW TSE23 P0049 T02000183 $
  • 030625Z AUTO 00000KT 2SM VCTS RA BR SCT038 BKN070 OVC090 19/18 A2997 RMK AO2 WSHFT 0542 LTG DSNT NE AND E AND SW TSE23 P0047 T01940178 $
  • 030607Z AUTO 20004KT 3SM +TSRA BR FEW021 BKN032 OVC090 20/18 A2998 RMK AO2 WSHFT 0542 LTG DSNT SW P0039 T02000183 $
  • 030603Z AUTO 18007KT 1 1/2SM R22/4000VP6000FT +TSRA BR FEW019 BKN030 OVC038 19/18 A2998 RMK AO2 WSHFT 0542 LTG DSNT SW P0034 T01940178 $
  • 030543Z AUTO 21012G19KT 8SM TS FEW019 BKN037 OVC085 23/19 A2999 RMK AO2 LTG DSNT S TSB37 T02280189

TAF KEVV
Valid from the 03 at 08:00 until the 04 at 06:00 UTC


030823Z 0308/0406 VRB02KT P6SM VCTS BKN060CB
TEMPO 0308/0310 3SM -TSRA BKN030CB
FM031000 VRB02KT P6SM SCT015 BKN150
FM031500 VRB04KT P6SM BKN025
PROB30 0317/0322 -TSRA BKN015CB
FM040200 31005KT P6SM BKN050
KZID FIR / North America



MET'MAP, your aeronautical weather chart ! - Copyright ORBIFLY December 2007 - Disclaimer

ORBIFLY MET'MAP TEAM :

Programming & Development : Alexandra Zaïnal
Concept & original design : Baudouin d'Aumeries
Assistance for programming : Marc-Olivier Méhu
Technical & hardware support : Manuel Goepfert

Contact : metmap@orbifly.com




SOURCES & CREDITS :

   NOAA       Earth
Advisory